Time;durP1;ratioP1;P1;durP2;ratioP2;P2;SDS_P1;SDS_P2;PMS_P1;PMS_P2;Temp;Humidity;BMP_temperature;BMP_pressure;BME280_temperature;BME280_humidity;BME280_pressure;Samples;Min_cycle;Max_cycle;Signal;HPM_P1;HPM_P2
2021/01/19 00:00:30;;;;;;;7.22;5.32;;;17.80;53.30;;;;;;5084663;28;20174;-60
2021/01/19 00:02:55;;;;;;;5.45;4.30;;;17.90;53.30;;;;;;5084833;28;20534;-60
2021/01/19 00:05:21;;;;;;;5.97;4.07;;;17.80;53.30;;;;;;5084206;28;20215;-59
2021/01/19 00:07:46;;;;;;;5.00;3.80;;;17.80;53.30;;;;;;5084456;28;20261;-62
2021/01/19 00:10:12;;;;;;;6.15;4.65;;;17.80;53.30;;;;;;5084401;28;20209;-60
2021/01/19 00:12:37;;;;;;;4.97;3.88;;;17.80;53.30;;;;;;5084515;28;20169;-60
2021/01/19 00:15:04;;;;;;;5.97;4.13;;;17.70;53.20;;;;;;5084088;28;20166;-61
2021/01/19 00:17:30;;;;;;;6.03;4.22;;;17.70;53.20;;;;;;5084083;28;20170;-62
2021/01/19 00:19:56;;;;;;;7.47;4.35;;;17.70;53.20;;;;;;5083984;28;20646;-61
2021/01/19 00:22:21;;;;;;;6.15;4.50;;;17.70;53.20;;;;;;5084207;28;20178;-61
2021/01/19 00:24:47;;;;;;;4.88;3.67;;;17.70;53.20;;;;;;5066540;28;20178;-61
2021/01/19 00:27:12;;;;;;;6.00;4.30;;;17.60;53.20;;;;;;5084073;28;21126;-62
2021/01/19 00:29:38;;;;;;;5.45;3.75;;;17.60;53.10;;;;;;5084027;28;20702;-60
2021/01/19 00:32:04;;;;;;;5.22;3.72;;;17.70;53.20;;;;;;5083962;28;21090;-60
2021/01/19 00:34:29;;;;;;;6.45;4.18;;;17.60;53.20;;;;;;5084149;28;20185;-60
2021/01/19 00:36:55;;;;;;;5.22;3.45;;;17.60;53.10;;;;;;5084008;28;20623;-60
2021/01/19 00:39:21;;;;;;;6.75;3.97;;;17.60;53.10;;;;;;5084732;28;20982;-61
2021/01/19 00:41:46;;;;;;;4.85;3.47;;;17.50;53.10;;;;;;5088105;28;20162;-61
2021/01/19 00:44:12;;;;;;;5.40;3.60;;;17.50;53.10;;;;;;5087924;28;20206;-61
2021/01/19 00:46:37;;;;;;;4.40;3.90;;;17.60;53.10;;;;;;5088139;28;20213;-61
2021/01/19 00:49:03;;;;;;;6.15;3.75;;;17.50;53.10;;;;;;5087861;28;20197;-61
2021/01/19 00:51:33;;;;;;;7.15;4.30;;;17.50;53.10;;;;;;5087792;28;20189;-61
2021/01/19 00:53:58;;;;;;;7.35;3.42;;;17.50;53.10;;;;;;5087814;28;20174;-60
2021/01/19 00:56:24;;;;;;;4.88;3.90;;;17.50;53.10;;;;;;5087618;28;20178;-60
2021/01/19 00:58:49;;;;;;;4.28;3.88;;;17.40;53.00;;;;;;5087472;28;20177;-60
2021/01/19 01:01:15;;;;;;;5.45;3.38;;;17.40;52.90;;;;;;5087606;28;20188;-60
2021/01/19 01:03:40;;;;;;;6.40;3.97;;;17.40;52.90;;;;;;5087777;28;20268;-61
2021/01/19 01:06:06;;;;;;;5.72;3.60;;;17.40;53.00;;;;;;5087602;28;20225;-58
2021/01/19 01:08:31;;;;;;;4.40;3.10;;;17.40;52.90;;;;;;5087488;28;20174;-61
2021/01/19 01:10:57;;;;;;;4.15;3.30;;;17.40;52.90;;;;;;5087637;28;20623;-60
2021/01/19 01:13:22;;;;;;;5.13;3.42;;;17.40;52.90;;;;;;5087537;28;20597;-60
2021/01/19 01:15:48;;;;;;;6.03;4.47;;;17.40;52.90;;;;;;5087535;28;20174;-62
2021/01/19 01:18:14;;;;;;;4.15;3.05;;;17.40;52.90;;;;;;5069358;28;20227;-61
2021/01/19 01:20:40;;;;;;;5.15;3.83;;;17.30;52.90;;;;;;5087345;28;20178;-60
2021/01/19 01:23:06;;;;;;;3.55;3.20;;;17.40;52.90;;;;;;5087206;28;20589;-61
2021/01/19 01:25:32;;;;;;;4.97;3.55;;;17.30;52.90;;;;;;5069151;28;20290;-61
2021/01/19 01:27:57;;;;;;;3.35;3.03;;;17.30;52.80;;;;;;5086944;28;20264;-60
2021/01/19 01:30:23;;;;;;;4.90;3.53;;;17.30;52.90;;;;;;5087304;28;20319;-60
2021/01/19 01:32:50;;;;;;;5.25;3.00;;;17.30;52.90;;;;;;5087052;28;20174;-60
2021/01/19 01:35:16;;;;;;;3.40;3.10;;;17.30;52.90;;;;;;5069197;28;20173;-61
2021/01/19 01:37:51;;;;;;;4.72;3.15;;;17.30;52.90;;;;;;5087006;28;20173;-59
2021/01/19 01:40:26;;;;;;;5.15;3.85;;;17.30;52.80;;;;;;5087004;28;20199;-60
2021/01/19 01:42:53;;;;;;;3.67;2.83;;;17.30;52.90;;;;;;5086783;28;20684;-61
2021/01/19 01:45:20;;;;;;;4.75;3.28;;;17.30;52.80;;;;;;5068964;28;20225;-61
2021/01/19 01:47:49;;;;;;;3.88;2.90;;;17.30;52.80;;;;;;5086721;28;20258;-61
2021/01/19 01:50:15;;;;;;;4.78;3.30;;;17.20;52.80;;;;;;5068759;28;20173;-61
2021/01/19 01:52:41;;;;;;;4.70;3.17;;;17.20;52.70;;;;;;5069198;28;20215;-61
2021/01/19 01:55:07;;;;;;;3.92;2.88;;;17.20;52.70;;;;;;5068814;28;20565;-58
2021/01/19 01:57:32;;;;;;;4.63;3.25;;;17.20;52.70;;;;;;5068582;28;20215;-60
2021/01/19 02:00:01;;;;;;;4.15;3.20;;;17.20;52.70;;;;;;5086630;28;20190;-58
2021/01/19 02:02:27;;;;;;;4.80;3.00;;;17.20;52.70;;;;;;5068855;28;20201;-60
2021/01/19 02:04:52;;;;;;;3.83;2.95;;;17.10;52.70;;;;;;5086859;28;20174;-60
2021/01/19 02:07:54;;;;;;;4.70;3.53;;;17.20;52.70;;;;;;5086075;28;20213;-59
2021/01/19 02:10:40;;;;;;;6.70;3.05;;;17.10;52.60;;;;;;5071260;28;20184;-55
2021/01/19 02:13:20;;;;;;;5.90;2.97;;;17.10;52.60;;;;;;5070879;28;20189;-58
2021/01/19 02:15:50;;;;;;;4.50;2.95;;;17.10;52.90;;;;;;5085190;28;20169;-59
2021/01/19 02:18:42;;;;;;;10.15;3.28;;;17.20;52.70;;;;;;5067374;28;20315;-57
2021/01/19 02:21:26;;;;;;;6.20;3.05;;;17.20;52.70;;;;;;5068024;28;20182;-58
2021/01/19 02:23:59;;;;;;;4.82;2.53;;;17.20;52.80;;;;;;5086354;28;20236;-58
2021/01/19 02:26:41;;;;;;;4.95;3.00;;;17.20;52.70;;;;;;5052095;28;20205;-58
2021/01/19 02:29:29;;;;;;;7.47;2.88;;;17.20;52.80;;;;;;5084830;28;20756;-54
2021/01/19 02:32:10;;;;;;;5.97;3.00;;;17.20;52.90;;;;;;5086107;28;20165;-55
2021/01/19 02:34:47;;;;;;;4.50;2.60;;;17.20;52.90;;;;;;5085793;28;20178;-55
2021/01/19 02:37:44;;;;;;;6.95;2.85;;;17.30;52.90;;;;;;5050590;28;20205;-56
2021/01/19 02:40:10;;;;;;;4.97;2.75;;;17.20;52.90;;;;;;5033370;28;20192;-58
2021/01/19 02:42:44;;;;;;;5.45;2.40;;;17.30;52.90;;;;;;5051025;28;20210;-59
2021/01/19 02:45:10;;;;;;;3.78;2.83;;;17.30;52.90;;;;;;5067416;28;20170;-58
2021/01/19 02:47:43;;;;;;;7.93;3.15;;;17.30;52.90;;;;;;5085586;28;20553;-59
2021/01/19 02:50:09;;;;;;;6.05;3.17;;;17.30;52.90;;;;;;5085165;28;20437;-56
2021/01/19 02:52:36;;;;;;;7.30;3.45;;;17.30;52.90;;;;;;5066989;28;20931;-56
2021/01/19 02:55:01;;;;;;;3.72;2.63;;;17.20;52.80;;;;;;5051123;28;20178;-58
2021/01/19 02:57:48;;;;;;;3.97;3.05;;;17.20;52.80;;;;;;5067037;28;20170;-56
2021/01/19 03:00:36;;;;;;;5.55;2.75;;;17.20;52.80;;;;;;5068946;28;20173;-59
2021/01/19 03:03:01;;;;;;;6.30;2.97;;;17.20;52.80;;;;;;5084043;28;20181;-56
2021/01/19 03:05:27;;;;;;;6.15;2.80;;;17.20;52.80;;;;;;5085114;28;20178;-58
2021/01/19 03:07:52;;;;;;;5.63;2.60;;;17.20;52.80;;;;;;5050302;28;20640;-58
2021/01/19 03:10:18;;;;;;;5.03;2.63;;;17.20;52.80;;;;;;5050983;28;20178;-60
2021/01/19 03:12:45;;;;;;;5.25;3.33;;;17.30;52.80;;;;;;5085393;28;20675;-56
2021/01/19 03:15:11;;;;;;;3.83;2.53;;;17.30;52.90;;;;;;5085308;28;20172;-60
2021/01/19 03:17:37;;;;;;;4.63;2.63;;;17.20;52.80;;;;;;5085177;28;20200;-60
2021/01/19 03:20:04;;;;;;;4.75;2.75;;;17.30;53.00;;;;;;5085161;28;20177;-58
2021/01/19 03:22:30;;;;;;;4.88;2.75;;;17.20;52.90;;;;;;5084933;28;20173;-59
2021/01/19 03:24:56;;;;;;;5.05;2.50;;;17.20;53.10;;;;;;5084363;28;20170;-56
2021/01/19 03:27:21;;;;;;;5.05;2.65;;;17.20;53.00;;;;;;5084116;28;20213;-57
2021/01/19 03:29:47;;;;;;;6.00;2.78;;;17.20;52.80;;;;;;5084051;28;20189;-57
2021/01/19 03:32:12;;;;;;;4.43;2.40;;;17.20;52.70;;;;;;5084034;28;20644;-59
2021/01/19 03:34:39;;;;;;;2.65;2.45;;;17.20;52.80;;;;;;5085212;28;20579;-59
2021/01/19 03:37:05;;;;;;;5.75;2.55;;;17.20;52.70;;;;;;5084930;28;20181;-57
2021/01/19 03:39:31;;;;;;;6.75;2.80;;;17.20;52.80;;;;;;5084993;28;20178;-59
2021/01/19 03:41:57;;;;;;;3.85;2.47;;;17.20;52.70;;;;;;5067186;28;20907;-63
2021/01/19 03:44:22;;;;;;;4.68;2.17;;;17.20;52.90;;;;;;5084604;28;20174;-55
2021/01/19 03:46:48;;;;;;;8.57;2.65;;;17.20;52.70;;;;;;5084534;28;20205;-60
2021/01/19 03:49:13;;;;;;;4.03;2.10;;;17.10;53.20;;;;;;5084639;28;20178;-57
2021/01/19 03:51:39;;;;;;;4.68;3.30;;;17.10;52.90;;;;;;5084346;28;20205;-58
2021/01/19 03:54:05;;;;;;;3.95;2.72;;;17.10;53.00;;;;;;5084579;28;20203;-59
2021/01/19 03:56:30;;;;;;;6.30;2.63;;;17.10;52.80;;;;;;5084301;28;20170;-59
2021/01/19 03:58:56;;;;;;;5.60;2.53;;;17.10;52.80;;;;;;5084379;28;20188;-56
2021/01/19 04:01:21;;;;;;;4.18;2.83;;;17.00;52.80;;;;;;5084456;28;20169;-58
2021/01/19 04:03:47;;;;;;;3.15;2.50;;;17.00;52.70;;;;;;5084433;28;20655;-59
2021/01/19 04:06:12;;;;;;;4.18;2.50;;;17.00;52.70;;;;;;5084223;28;20965;-56
2021/01/19 04:08:38;;;;;;;3.85;2.45;;;17.00;52.60;;;;;;5084360;28;20192;-58
2021/01/19 04:11:04;;;;;;;6.05;2.50;;;17.00;52.60;;;;;;5084376;28;20181;-59
2021/01/19 04:13:30;;;;;;;3.55;2.30;;;16.90;52.60;;;;;;5083952;28;20170;-53
2021/01/19 04:15:56;;;;;;;2.83;2.53;;;16.90;52.60;;;;;;5083955;28;20624;-58
2021/01/19 04:18:22;;;;;;;3.80;2.20;;;16.90;52.60;;;;;;5084176;28;20218;-55
2021/01/19 04:20:48;;;;;;;3.55;2.50;;;16.90;52.60;;;;;;5084222;28;20181;-56
2021/01/19 04:23:16;;;;;;;5.10;2.55;;;16.90;52.70;;;;;;5084189;28;20177;-56
2021/01/19 04:25:43;;;;;;;3.47;2.35;;;16.80;52.50;;;;;;5084248;28;20174;-58
2021/01/19 04:28:09;;;;;;;3.67;2.35;;;16.80;52.50;;;;;;5083946;28;20178;-58
2021/01/19 04:30:34;;;;;;;3.88;2.60;;;16.80;52.50;;;;;;5084136;28;20258;-53
2021/01/19 04:33:00;;;;;;;3.40;2.10;;;16.80;52.50;;;;;;5083985;28;20198;-52
2021/01/19 04:35:26;;;;;;;3.17;2.38;;;16.80;52.50;;;;;;5084181;28;20177;-55
2021/01/19 04:37:51;;;;;;;3.08;2.00;;;16.80;52.50;;;;;;5083967;28;20177;-54
2021/01/19 04:40:17;;;;;;;6.22;2.42;;;16.70;52.50;;;;;;5083768;28;20249;-58
2021/01/19 04:42:42;;;;;;;4.50;2.97;;;16.70;52.50;;;;;;5084062;28;20198;-58
2021/01/19 04:45:09;;;;;;;2.38;1.92;;;16.70;52.50;;;;;;5083876;28;20173;-56
2021/01/19 04:47:35;;;;;;;3.65;2.20;;;16.70;52.50;;;;;;5083641;28;20207;-57
2021/01/19 04:50:18;;;;;;;2.83;2.38;;;16.70;52.50;;;;;;5083845;28;20178;-55
2021/01/19 04:52:45;;;;;;;3.85;2.10;;;16.70;52.50;;;;;;5084305;28;20632;-58
2021/01/19 04:55:38;;;;;;;3.50;2.13;;;16.70;52.50;;;;;;5083982;28;20658;-57
2021/01/19 04:58:05;;;;;;;3.05;2.08;;;16.60;52.40;;;;;;5078700;28;20201;-55
2021/01/19 05:00:32;;;;;;;4.05;2.38;;;16.60;52.40;;;;;;5083864;28;20263;-57
2021/01/19 05:03:19;;;;;;;2.38;2.15;;;16.60;52.40;;;;;;5084452;28;20174;-56
2021/01/19 05:05:58;;;;;;;3.65;2.35;;;16.60;52.40;;;;;;5083702;28;20178;-57
2021/01/19 05:08:25;;;;;;;2.95;2.25;;;16.60;52.40;;;;;;5066856;28;20170;-59
2021/01/19 05:10:55;;;;;;;4.32;2.50;;;16.60;52.40;;;;;;5084082;28;20619;-57
2021/01/19 05:14:03;;;;;;;2.83;2.10;;;16.60;52.40;;;;;;5083945;28;20170;-57
2021/01/19 05:16:34;;;;;;;3.92;2.17;;;16.50;52.30;;;;;;4981720;28;20188;-56
2021/01/19 05:19:01;;;;;;;3.22;2.50;;;16.50;52.30;;;;;;5066347;28;20194;-59
2021/01/19 05:21:26;;;;;;;3.53;2.25;;;16.50;52.30;;;;;;5083384;28;20182;-58
2021/01/19 05:23:53;;;;;;;3.53;2.17;;;16.50;52.30;;;;;;5083682;28;20292;-56
2021/01/19 05:26:19;;;;;;;2.20;1.92;;;16.50;52.30;;;;;;5067707;28;20201;-58
2021/01/19 05:28:47;;;;;;;4.28;2.70;;;16.50;52.30;;;;;;5086853;28;20181;-57
2021/01/19 05:31:16;;;;;;;2.00;1.67;;;16.50;52.30;;;;;;5086992;28;20177;-55
2021/01/19 05:33:42;;;;;;;4.47;2.33;;;16.50;52.40;;;;;;5087084;28;20185;-59
2021/01/19 05:36:09;;;;;;;3.70;2.25;;;16.40;52.30;;;;;;5087277;28;20334;-59
2021/01/19 05:38:47;;;;;;;2.60;2.10;;;16.40;52.30;;;;;;5086946;28;20169;-57
2021/01/19 05:41:37;;;;;;;2.50;1.73;;;16.40;52.30;;;;;;5087169;28;20181;-57
2021/01/19 05:44:22;;;;;;;4.65;1.98;;;16.40;52.30;;;;;;5087063;28;20678;-58
2021/01/19 05:46:48;;;;;;;3.60;1.92;;;16.40;52.30;;;;;;5086856;28;20494;-60
2021/01/19 05:49:24;;;;;;;2.15;1.95;;;16.40;52.30;;;;;;5086798;28;20936;-60
2021/01/19 05:51:54;;;;;;;3.53;2.15;;;16.40;52.30;;;;;;5087032;28;20248;-60
2021/01/19 05:54:25;;;;;;;2.63;1.75;;;16.40;52.30;;;;;;5069810;28;20174;-58
2021/01/19 05:56:50;;;;;;;3.20;1.98;;;16.40;52.30;;;;;;5086489;28;20646;-54
2021/01/19 05:59:30;;;;;;;3.83;2.28;;;16.30;52.20;;;;;;5086582;28;20174;-57
2021/01/19 06:01:57;;;;;;;3.33;2.17;;;16.40;52.30;;;;;;5086927;28;20276;-56
2021/01/19 06:04:33;;;;;;;1.88;1.65;;;16.40;52.40;;;;;;5086321;28;20185;-57
2021/01/19 06:06:59;;;;;;;2.65;1.80;;;16.40;52.50;;;;;;5086445;28;20208;-60
2021/01/19 06:09:25;;;;;;;2.22;1.55;;;16.50;52.60;;;;;;5086504;28;20623;-58
2021/01/19 06:11:56;;;;;;;2.80;1.67;;;16.60;52.60;;;;;;5086478;28;20249;-60
2021/01/19 06:14:25;;;;;;;1.67;1.58;;;16.70;52.50;;;;;;5086474;28;20180;-59
2021/01/19 06:16:50;;;;;;;2.17;1.73;;;16.90;52.30;;;;;;5085969;28;20166;-58
2021/01/19 06:19:29;;;;;;;1.95;1.73;;;17.10;52.10;;;;;;5086253;28;20208;-60
2021/01/19 06:21:58;;;;;;;2.35;1.58;;;17.30;51.80;;;;;;5086020;28;20535;-58
2021/01/19 06:24:33;;;;;;;1.75;1.65;;;17.50;51.40;;;;;;5086142;28;21035;-59
2021/01/19 06:26:59;;;;;;;2.67;1.50;;;17.70;51.20;;;;;;5086142;28;20300;-59
2021/01/19 06:29:25;;;;;;;1.67;1.42;;;17.70;50.70;;;;;;5086080;28;20734;-57
2021/01/19 06:31:51;;;;;;;0.95;0.95;;;17.90;50.40;;;;;;5086213;28;20181;-57
2021/01/19 06:34:30;;;;;;;1.45;1.20;;;18.10;50.30;;;;;;5086080;28;20170;-58
2021/01/19 06:36:56;;;;;;;1.80;1.40;;;18.10;50.20;;;;;;5084994;28;20162;-59
2021/01/19 06:39:38;;;;;;;1.67;1.38;;;18.20;50.10;;;;;;5085715;28;20220;-59
2021/01/19 06:42:07;;;;;;;2.35;1.40;;;18.30;50.00;;;;;;5085549;28;20173;-60
2021/01/19 06:44:38;;;;;;;1.73;1.40;;;18.30;49.90;;;;;;5086011;28;20173;-60
2021/01/19 06:47:05;;;;;;;2.72;1.38;;;18.40;50.00;;;;;;5085840;28;20237;-61
2021/01/19 06:49:38;;;;;;;1.98;1.55;;;18.30;49.90;;;;;;5067874;28;20185;-60
2021/01/19 06:52:14;;;;;;;1.75;1.42;;;18.40;49.90;;;;;;5085776;28;20227;-58
2021/01/19 06:54:55;;;;;;;2.42;1.27;;;18.40;49.90;;;;;;5085235;28;20193;-59
2021/01/19 06:57:30;;;;;;;1.75;1.45;;;18.40;49.90;;;;;;5085780;28;20173;-59
2021/01/19 07:00:08;;;;;;;1.25;1.00;;;18.40;49.90;;;;;;5085456;28;20244;-58
2021/01/19 07:02:40;;;;;;;1.58;1.35;;;18.40;49.90;;;;;;5085173;28;20177;-59
2021/01/19 07:05:13;;;;;;;1.75;1.35;;;18.30;49.90;;;;;;5085597;28;20170;-56
2021/01/19 07:07:44;;;;;;;1.55;1.30;;;18.30;50.10;;;;;;5085026;28;20209;-59
2021/01/19 07:10:11;;;;;;;1.65;1.15;;;18.20;50.20;;;;;;5084890;28;20598;-57
2021/01/19 07:12:56;;;;;;;1.48;1.33;;;18.10;50.30;;;;;;5067133;28;20235;-59
2021/01/19 07:15:50;;;;;;;1.42;1.20;;;18.10;50.40;;;;;;5085122;28;20180;-59
2021/01/19 07:18:41;;;;;;;1.77;1.30;;;18.00;50.60;;;;;;5085277;28;20170;-57
2021/01/19 07:21:07;;;;;;;1.58;1.27;;;17.90;50.70;;;;;;5085184;28;20182;-58
2021/01/19 07:23:41;;;;;;;1.05;1.05;;;17.80;50.90;;;;;;5085038;28;20202;-59
2021/01/19 07:26:07;;;;;;;1.40;1.30;;;17.70;51.00;;;;;;5084987;28;20224;-59
2021/01/19 07:28:32;;;;;;;1.27;1.17;;;17.70;51.10;;;;;;5085293;28;20251;-57
2021/01/19 07:30:58;;;;;;;1.90;1.00;;;17.60;51.10;;;;;;5085106;28;20250;-59
2021/01/19 07:33:24;;;;;;;1.27;1.00;;;17.60;51.20;;;;;;5050084;28;20188;-58
2021/01/19 07:35:49;;;;;;;1.13;1.00;;;17.60;51.20;;;;;;5066658;28;20170;-60
2021/01/19 07:38:21;;;;;;;1.40;1.30;;;17.60;51.20;;;;;;5050306;28;20170;-58
2021/01/19 07:40:47;;;;;;;1.35;0.88;;;17.60;51.20;;;;;;5084524;28;20173;-61
2021/01/19 07:43:16;;;;;;;1.02;0.90;;;17.60;51.20;;;;;;5084693;28;20186;-58
2021/01/19 07:45:49;;;;;;;1.75;1.15;;;17.50;51.30;;;;;;5084244;28;20202;-60
2021/01/19 07:48:15;;;;;;;1.00;1.00;;;17.50;51.40;;;;;;5084701;28;20177;-60
2021/01/19 07:50:44;;;;;;;1.33;1.02;;;17.40;51.50;;;;;;5084122;28;20184;-60
2021/01/19 07:53:10;;;;;;;1.10;0.95;;;17.40;51.50;;;;;;5084483;28;20302;-60
2021/01/19 07:55:45;;;;;;;1.52;1.25;;;17.40;51.60;;;;;;5084464;28;20708;-57
2021/01/19 07:58:20;;;;;;;1.33;1.02;;;17.30;51.60;;;;;;5084569;28;20205;-60
2021/01/19 08:00:57;;;;;;;0.82;0.80;;;17.40;51.60;;;;;;5067772;28;20169;-60
2021/01/19 08:03:29;;;;;;;0.90;0.85;;;17.40;51.50;;;;;;5084230;28;20945;-57
2021/01/19 08:05:55;;;;;;;1.17;1.08;;;17.40;51.50;;;;;;5084123;28;20276;-59
2021/01/19 08:08:20;;;;;;;0.70;0.70;;;17.40;51.50;;;;;;5084334;28;20180;-59
2021/01/19 08:10:56;;;;;;;1.30;0.90;;;17.40;51.50;;;;;;5084247;28;20178;-61
2021/01/19 08:13:22;;;;;;;1.10;1.00;;;17.40;51.50;;;;;;5084471;28;20201;-58
2021/01/19 08:16:01;;;;;;;1.10;1.10;;;17.30;51.60;;;;;;5083952;28;20671;-57
2021/01/19 08:18:37;;;;;;;1.25;0.90;;;17.20;51.60;;;;;;5067814;28;20180;-59
2021/01/19 08:21:06;;;;;;;1.20;1.00;;;17.20;51.70;;;;;;5067413;28;20197;-59
2021/01/19 08:23:33;;;;;;;0.80;0.80;;;17.20;51.80;;;;;;5084100;28;20173;-59
2021/01/19 08:26:09;;;;;;;1.00;0.98;;;17.20;51.80;;;;;;5084246;28;20186;-59
2021/01/19 08:28:35;;;;;;;1.10;0.80;;;17.20;51.80;;;;;;5084011;28;20216;-60
2021/01/19 08:31:01;;;;;;;1.13;0.82;;;17.30;51.80;;;;;;5084360;28;20172;-59
2021/01/19 08:33:26;;;;;;;1.85;0.90;;;17.30;51.70;;;;;;5065840;28;20166;-60
2021/01/19 08:35:53;;;;;;;0.88;0.82;;;17.30;51.70;;;;;;5084068;28;20177;-62
2021/01/19 08:38:23;;;;;;;1.23;0.90;;;17.20;51.80;;;;;;5084479;28;20188;-61
2021/01/19 08:40:49;;;;;;;1.95;1.05;;;17.30;51.90;;;;;;5083859;28;20654;-60
2021/01/19 08:43:14;;;;;;;1.50;0.90;;;17.20;51.70;;;;;;5083578;28;20178;-61
2021/01/19 08:45:40;;;;;;;1.90;0.88;;;17.20;51.90;;;;;;5084144;28;20883;-62
2021/01/19 08:48:07;;;;;;;1.10;1.00;;;17.10;51.90;;;;;;5065751;28;20608;-62
2021/01/19 08:50:35;;;;;;;1.55;1.00;;;17.10;51.90;;;;;;5083845;28;20182;-62
2021/01/19 08:53:13;;;;;;;1.17;1.08;;;17.10;51.90;;;;;;5049308;28;20217;-62
2021/01/19 08:55:39;;;;;;;0.98;0.77;;;17.20;51.90;;;;;;5065928;28;20548;-60
2021/01/19 08:58:05;;;;;;;1.67;1.00;;;17.10;51.90;;;;;;5083700;28;20178;-62
2021/01/19 09:00:36;;;;;;;1.40;1.10;;;17.10;51.90;;;;;;5066981;28;20170;-62
2021/01/19 09:03:12;;;;;;;0.80;0.80;;;17.10;51.90;;;;;;5087628;28;20184;-61
2021/01/19 09:05:38;;;;;;;1.00;0.90;;;17.00;52.00;;;;;;5087312;28;20231;-62
2021/01/19 09:08:19;;;;;;;1.05;1.00;;;17.00;52.10;;;;;;5087567;28;20648;-61
2021/01/19 09:10:46;;;;;;;1.23;0.93;;;17.00;52.10;;;;;;5087052;28;20190;-61
2021/01/19 09:13:11;;;;;;;0.70;0.70;;;16.90;52.10;;;;;;5087290;28;20591;-62
2021/01/19 09:15:44;;;;;;;1.02;0.90;;;16.90;52.10;;;;;;5069350;28;20667;-57
2021/01/19 09:18:14;;;;;;;1.40;0.90;;;17.00;52.20;;;;;;5086821;28;20186;-63
2021/01/19 09:20:42;;;;;;;1.67;0.80;;;17.00;52.30;;;;;;5069567;28;20185;-63
2021/01/19 09:23:17;;;;;;;0.90;0.85;;;17.10;52.30;;;;;;5053095;28;20185;-58
2021/01/19 09:25:46;;;;;;;1.30;1.02;;;17.10;52.40;;;;;;5087025;28;20169;-61
2021/01/19 09:28:12;;;;;;;1.35;0.88;;;17.20;52.60;;;;;;5068295;28;20234;-62
2021/01/19 09:30:39;;;;;;;2.80;0.90;;;17.30;52.70;;;;;;5085904;28;20198;-62
2021/01/19 09:33:11;;;;;;;1.45;0.90;;;17.30;52.50;;;;;;5086036;28;20201;-62
2021/01/19 09:35:37;;;;;;;1.98;1.00;;;17.40;52.40;;;;;;5048948;28;20206;-61
2021/01/19 09:38:03;;;;;;;3.50;0.95;;;17.60;52.30;;;;;;5049168;28;20190;-61
2021/01/19 09:40:33;;;;;;;0.70;0.70;;;17.70;52.20;;;;;;5076332;28;20209;-61
2021/01/19 09:42:58;;;;;;;2.70;0.98;;;17.70;52.00;;;;;;5068878;28;20260;-61
2021/01/19 09:45:24;;;;;;;0.85;0.70;;;17.80;51.90;;;;;;5068930;28;20166;-62
2021/01/19 09:47:49;;;;;;;3.22;0.90;;;17.80;51.80;;;;;;5068437;28;20395;-61
2021/01/19 09:50:15;;;;;;;1.83;0.93;;;17.90;51.90;;;;;;5068940;28;20173;-64
2021/01/19 09:52:44;;;;;;;1.65;0.85;;;17.90;52.20;;;;;;5086669;28;20172;-62
2021/01/19 09:55:14;;;;;;;1.73;0.85;;;17.90;52.20;;;;;;5086430;28;20178;-61
2021/01/19 09:57:40;;;;;;;2.75;1.00;;;18.00;52.30;;;;;;5086350;28;20177;-61
2021/01/19 10:00:07;;;;;;;1.08;0.70;;;18.00;52.30;;;;;;5086535;28;20547;-61
2021/01/19 10:02:33;;;;;;;1.05;0.80;;;18.00;52.30;;;;;;5086290;28;20996;-61
2021/01/19 10:05:02;;;;;;;1.35;0.90;;;18.00;52.30;;;;;;5086518;28;20182;-61
2021/01/19 10:07:29;;;;;;;2.08;0.80;;;18.00;52.40;;;;;;5086361;28;20255;-61
2021/01/19 10:10:09;;;;;;;2.00;1.10;;;18.00;52.30;;;;;;5086084;28;20193;-61
2021/01/19 10:12:34;;;;;;;1.00;0.90;;;18.00;52.50;;;;;;5086210;28;20166;-62
2021/01/19 10:15:00;;;;;;;1.67;0.88;;;18.00;52.40;;;;;;5086058;28;20192;-61
2021/01/19 10:17:30;;;;;;;2.05;1.08;;;18.00;52.50;;;;;;5086357;28;20178;-62
2021/01/19 10:20:05;;;;;;;1.20;0.82;;;18.00;52.60;;;;;;5068135;28;20173;-62
2021/01/19 10:22:30;;;;;;;2.88;1.00;;;17.90;52.70;;;;;;5086110;28;20173;-60
2021/01/19 10:24:56;;;;;;;2.08;1.20;;;17.90;53.00;;;;;;5051402;28;20932;-60
2021/01/19 10:27:21;;;;;;;1.10;0.80;;;17.80;52.80;;;;;;5085851;28;21013;-61
2021/01/19 10:29:49;;;;;;;1.23;0.90;;;17.80;52.90;;;;;;5051162;28;20216;-59
2021/01/19 10:32:16;;;;;;;1.10;0.80;;;17.80;53.00;;;;;;5051279;28;20174;-59
2021/01/19 10:34:49;;;;;;;1.92;0.80;;;17.80;53.00;;;;;;5085902;28;20178;-57
2021/01/19 10:37:15;;;;;;;1.75;0.90;;;17.90;53.00;;;;;;5085877;28;20177;-58
2021/01/19 10:39:56;;;;;;;1.85;1.02;;;18.00;53.00;;;;;;5085848;28;20544;-55
2021/01/19 10:42:26;;;;;;;3.05;1.08;;;18.30;52.60;;;;;;5069429;28;20209;-61
2021/01/19 10:45:02;;;;;;;1.88;1.00;;;18.60;52.10;;;;;;5085583;28;20197;-63
2021/01/19 10:47:43;;;;;;;5.25;0.82;;;18.80;51.60;;;;;;5085684;28;20209;-62
2021/01/19 10:50:13;;;;;;;2.80;0.90;;;19.10;51.20;;;;;;5085782;28;20181;-61
2021/01/19 10:52:42;;;;;;;2.78;0.82;;;19.30;50.90;;;;;;5067476;28;20191;-62
2021/01/19 10:55:10;;;;;;;1.27;0.75;;;19.30;50.70;;;;;;5085631;28;20173;-61
2021/01/19 10:57:36;;;;;;;1.00;0.80;;;19.40;50.70;;;;;;5085554;28;20272;-61
2021/01/19 11:00:03;;;;;;;2.63;1.05;;;19.50;50.60;;;;;;5085609;28;20694;-63
2021/01/19 11:02:30;;;;;;;3.05;0.60;;;19.60;50.40;;;;;;5085414;28;20190;-61
2021/01/19 11:04:56;;;;;;;1.40;1.00;;;19.60;50.30;;;;;;5085194;28;20162;-59
2021/01/19 11:07:21;;;;;;;2.20;0.85;;;19.60;50.20;;;;;;5085254;28;20202;-61
2021/01/19 11:09:47;;;;;;;1.05;0.80;;;19.60;50.30;;;;;;5085171;28;20174;-61
2021/01/19 11:12:16;;;;;;;1.45;0.85;;;19.60;50.40;;;;;;5084981;28;20173;-61
2021/01/19 11:14:42;;;;;;;1.58;0.80;;;19.50;50.30;;;;;;5085078;28;20694;-62
2021/01/19 11:17:07;;;;;;;1.40;0.75;;;19.50;50.30;;;;;;5084949;28;20275;-62
2021/01/19 11:19:33;;;;;;;1.48;0.75;;;19.40;50.40;;;;;;5084974;28;20173;-62
2021/01/19 11:21:59;;;;;;;1.20;0.73;;;19.50;50.50;;;;;;5084911;28;20539;-61
2021/01/19 11:24:24;;;;;;;2.25;0.60;;;19.40;50.70;;;;;;5084430;28;20174;-61
2021/01/19 11:26:50;;;;;;;0.75;0.60;;;19.40;50.70;;;;;;5084895;28;20208;-62
2021/01/19 11:29:15;;;;;;;1.52;0.70;;;19.30;50.70;;;;;;5084936;28;20225;-61
2021/01/19 11:31:41;;;;;;;0.70;0.70;;;19.30;50.80;;;;;;5084617;28;20181;-60
2021/01/19 11:34:08;;;;;;;1.38;0.73;;;19.30;50.80;;;;;;5084491;28;20687;-62
2021/01/19 11:36:37;;;;;;;0.98;0.77;;;19.30;50.80;;;;;;5084669;28;20255;-59
2021/01/19 11:39:07;;;;;;;2.42;0.73;;;19.40;50.90;;;;;;5084558;28;20565;-60
2021/01/19 11:41:32;;;;;;;1.40;1.08;;;19.40;50.80;;;;;;5066574;28;20537;-61
2021/01/19 11:43:58;;;;;;;1.63;0.77;;;19.50;50.80;;;;;;5084304;28;20170;-61
2021/01/19 11:46:27;;;;;;;0.70;0.60;;;19.50;50.80;;;;;;5066735;28;20194;-62
2021/01/19 11:48:54;;;;;;;1.10;0.60;;;19.60;50.80;;;;;;5084409;28;20178;-62
2021/01/19 11:51:27;;;;;;;0.63;0.50;;;19.60;50.80;;;;;;5084537;28;20240;-58
2021/01/19 11:53:54;;;;;;;0.75;0.73;;;19.70;50.70;;;;;;5084400;28;20198;-59
2021/01/19 11:56:19;;;;;;;2.58;0.60;;;19.70;50.70;;;;;;5084527;28;20186;-60
2021/01/19 11:58:45;;;;;;;1.05;0.57;;;19.70;50.60;;;;;;5084237;28;20173;-60
2021/01/19 12:01:18;;;;;;;1.23;0.60;;;19.80;50.70;;;;;;5084399;28;20252;-59
2021/01/19 12:03:44;;;;;;;0.70;0.60;;;19.70;50.70;;;;;;5084600;28;20229;-61
2021/01/19 12:06:09;;;;;;;0.98;0.60;;;19.70;50.70;;;;;;5084204;28;20652;-63
2021/01/19 12:08:35;;;;;;;1.30;0.65;;;19.80;50.70;;;;;;5084331;28;20178;-62
2021/01/19 12:11:00;;;;;;;0.68;0.68;;;19.80;50.70;;;;;;5084285;28;20185;-60
2021/01/19 12:13:26;;;;;;;0.63;0.60;;;19.90;50.80;;;;;;5084476;28;20519;-61
2021/01/19 12:15:52;;;;;;;2.15;0.60;;;19.80;50.70;;;;;;5084438;28;20178;-62
2021/01/19 12:18:17;;;;;;;1.92;0.70;;;19.80;50.80;;;;;;5084019;28;20170;-64
2021/01/19 12:20:43;;;;;;;1.73;0.65;;;19.80;50.80;;;;;;5084354;28;21026;-63
2021/01/19 12:23:08;;;;;;;0.60;0.57;;;19.90;50.70;;;;;;5084128;28;20231;-62
2021/01/19 12:25:34;;;;;;;0.80;0.60;;;19.90;50.80;;;;;;5083975;28;20205;-62
2021/01/19 12:28:02;;;;;;;1.27;0.50;;;19.90;50.80;;;;;;5083912;28;20205;-62
2021/01/19 12:30:28;;;;;;;0.98;0.60;;;19.70;50.90;;;;;;5084047;28;20215;-62
2021/01/19 12:32:53;;;;;;;0.50;0.50;;;19.70;51.10;;;;;;5084119;28;20735;-61
2021/01/19 12:35:19;;;;;;;2.05;0.63;;;19.60;51.20;;;;;;5084725;28;20211;-60
2021/01/19 12:37:45;;;;;;;0.57;0.50;;;19.50;51.40;;;;;;5088067;28;20176;-63
2021/01/19 12:40:11;;;;;;;0.50;0.50;;;19.50;51.50;;;;;;5087896;28;20360;-61
2021/01/19 12:42:37;;;;;;;2.65;0.60;;;19.40;51.60;;;;;;5087843;28;20624;-62
2021/01/19 12:45:03;;;;;;;0.85;0.70;;;19.50;51.80;;;;;;5087913;28;20177;-60
2021/01/19 12:47:29;;;;;;;2.13;0.50;;;19.40;51.80;;;;;;5069937;28;20213;-62
2021/01/19 12:49:54;;;;;;;1.75;0.60;;;19.40;51.90;;;;;;5087723;28;20180;-62
2021/01/19 12:52:20;;;;;;;1.75;0.40;;;19.40;51.90;;;;;;5087937;28;20170;-63
2021/01/19 12:54:45;;;;;;;1.30;0.65;;;19.40;52.00;;;;;;5087754;28;20170;-60
2021/01/19 12:57:12;;;;;;;0.70;0.68;;;19.40;51.90;;;;;;5087840;28;20650;-61